Time;durP1;ratioP1;P1;durP2;ratioP2;P2;SDS_P1;SDS_P2;PMS_P1;PMS_P2;Temp;Humidity;BMP_temperature;BMP_pressure;BME280_temperature;BME280_humidity;BME280_pressure;Samples;Min_cycle;Max_cycle;Signal;HPM_P1;HPM_P2
2021/05/03 00:02:16;;;;;;;10.23;6.63;;;3.10;99.90;;;3.96;91.77;101073.38;6195952;23;20013;-81
2021/05/03 00:04:42;;;;;;;10.40;7.75;;;3.00;99.90;;;3.90;91.84;101072.66;6203635;23;20005;-80
2021/05/03 00:07:07;;;;;;;11.77;8.05;;;2.90;99.90;;;3.87;92.39;101080.75;6166151;23;20128;-79
2021/05/03 00:09:33;;;;;;;10.15;7.88;;;2.90;99.90;;;3.85;92.66;101077.47;6191274;23;20470;-79
2021/05/03 00:11:59;;;;;;;13.38;8.70;;;2.90;99.90;;;3.83;92.63;101074.19;6189974;23;20360;-79
2021/05/03 00:14:25;;;;;;;14.27;7.88;;;2.90;99.90;;;3.87;92.51;101081.56;6189510;23;20331;-78
2021/05/03 00:16:51;;;;;;;12.55;8.18;;;2.90;99.90;;;3.85;92.97;101080.25;6189939;23;20001;-79
2021/05/03 00:19:17;;;;;;;12.45;9.32;;;2.80;99.90;;;3.86;93.11;101079.09;6190132;23;20300;-81
2021/05/03 00:21:43;;;;;;;13.15;9.35;;;2.90;99.90;;;3.90;93.07;101085.66;6190058;23;20009;-80
2021/05/03 00:24:10;;;;;;;15.90;9.05;;;2.90;99.90;;;3.88;93.40;101079.63;6162574;23;20507;-77
2021/05/03 00:26:36;;;;;;;14.02;9.57;;;2.90;99.90;;;3.90;93.17;101080.97;6188101;23;20021;-79
2021/05/03 00:29:02;;;;;;;12.20;8.27;;;2.90;99.90;;;3.90;93.39;101080.97;6187987;23;20005;-79
2021/05/03 00:31:28;;;;;;;13.10;8.18;;;2.90;99.90;;;3.90;92.90;101075.44;6188671;23;20080;-80
2021/05/03 00:33:55;;;;;;;11.45;8.00;;;2.90;99.90;;;3.89;92.83;101070.19;6188670;23;20005;-78
2021/05/03 00:36:21;;;;;;;10.80;8.32;;;2.90;99.90;;;3.84;92.72;101065.59;6188278;23;20005;-77
2021/05/03 00:38:46;;;;;;;18.23;8.98;;;2.80;99.90;;;3.82;92.82;101072.56;6188654;23;20338;-78
2021/05/03 00:41:12;;;;;;;11.55;7.90;;;2.80;99.90;;;3.76;92.44;101071.00;6188897;23;20016;-80
2021/05/03 00:43:38;;;;;;;12.98;8.60;;;2.80;99.90;;;3.75;92.76;101067.41;6162700;23;20009;-79
2021/05/03 00:46:04;;;;;;;12.27;8.05;;;2.70;99.90;;;3.70;92.50;101068.31;6162348;23;20442;-78
2021/05/03 00:48:30;;;;;;;9.80;7.20;;;2.70;99.90;;;3.64;92.60;101063.19;6190505;23;20013;-80
2021/05/03 00:50:56;;;;;;;11.10;7.50;;;2.60;99.90;;;3.53;92.28;101064.47;6187780;23;20027;-78
2021/05/03 00:53:22;;;;;;;11.35;7.65;;;2.60;99.90;;;3.48;92.16;101065.38;6189368;23;20036;-78
2021/05/03 00:55:48;;;;;;;10.70;7.00;;;2.50;99.90;;;3.41;92.20;101067.69;6188075;23;20005;-76
2021/05/03 00:58:14;;;;;;;11.80;7.22;;;2.40;99.90;;;3.37;92.37;101066.63;6162324;23;20040;-79
2021/05/03 01:00:41;;;;;;;12.70;8.27;;;2.40;99.90;;;3.36;92.07;101066.97;6188175;23;20060;-78
2021/05/03 01:03:07;;;;;;;13.70;8.20;;;2.40;99.90;;;3.34;92.22;101072.75;6186944;23;20104;-80
2021/05/03 01:05:34;;;;;;;11.68;8.70;;;2.40;99.90;;;3.36;92.58;101075.25;6184913;23;20419;-77
2021/05/03 01:08:03;;;;;;;13.05;8.82;;;2.40;99.90;;;3.41;92.65;101069.63;6182838;23;20005;-79
2021/05/03 01:10:30;;;;;;;17.30;8.55;;;2.40;99.90;;;3.39;92.39;101072.72;6158975;23;20001;-78
2021/05/03 01:12:59;;;;;;;15.40;9.18;;;2.40;99.90;;;3.38;92.47;101068.28;6186148;23;20008;-78
2021/05/03 01:15:26;;;;;;;15.85;9.50;;;2.40;99.90;;;3.41;93.05;101067.69;6187170;23;20016;-82
2021/05/03 01:18:04;;;;;;;23.38;9.98;;;2.40;99.90;;;3.43;92.68;101061.88;6186520;23;20014;-81
2021/05/03 01:20:36;;;;;;;11.75;8.05;;;2.40;99.90;;;3.49;92.35;101071.72;6158872;23;20048;-77
2021/05/03 01:23:07;;;;;;;14.98;9.00;;;2.40;99.90;;;3.49;92.17;101071.72;6158455;23;20043;-76
2021/05/03 01:25:39;;;;;;;12.75;9.30;;;2.40;99.90;;;3.50;92.18;101068.63;6163036;23;20017;-77
2021/05/03 01:28:07;;;;;;;13.25;8.45;;;2.40;99.90;;;3.48;91.83;101075.59;6190581;23;20009;-80
2021/05/03 01:30:44;;;;;;;15.30;8.88;;;2.50;99.90;;;3.44;92.20;101072.59;6185360;23;20004;-80
2021/05/03 01:33:15;;;;;;;14.05;9.18;;;2.50;99.90;;;3.44;91.91;101078.13;6163334;23;20009;-80
2021/05/03 01:35:46;;;;;;;12.88;8.63;;;2.40;99.90;;;3.47;91.89;101077.53;6183555;23;20071;-78
2021/05/03 01:38:15;;;;;;;12.35;8.88;;;2.50;99.90;;;3.51;91.92;101083.28;6163222;23;20335;-79
2021/05/03 01:40:44;;;;;;;15.95;8.90;;;2.50;99.90;;;3.48;91.49;101078.34;6190649;23;20009;-79
2021/05/03 01:43:18;;;;;;;13.45;9.18;;;2.50;99.90;;;3.44;91.40;101080.91;6165836;23;20009;-80
2021/05/03 01:45:47;;;;;;;12.13;8.50;;;2.40;99.90;;;3.43;90.90;101087.56;6185418;23;20080;-79
2021/05/03 01:48:19;;;;;;;11.32;8.10;;;2.40;99.90;;;3.39;90.85;101092.03;6184331;23;20450;-78
2021/05/03 01:50:46;;;;;;;14.23;7.88;;;2.40;99.90;;;3.36;91.00;101089.88;6184215;23;20009;-79
2021/05/03 01:53:14;;;;;;;12.00;7.78;;;2.30;99.90;;;3.33;91.04;101087.72;6184932;23;20281;-80
2021/05/03 01:55:40;;;;;;;12.43;8.48;;;2.30;99.90;;;3.32;90.93;101088.00;6184793;23;20036;-78
2021/05/03 01:58:08;;;;;;;14.85;8.30;;;2.30;99.90;;;3.33;91.01;101087.72;6183888;23;20008;-80
2021/05/03 02:00:36;;;;;;;11.20;8.02;;;2.30;99.90;;;3.31;91.22;101098.22;6182812;23;20312;-77
2021/05/03 02:03:02;;;;;;;13.80;7.82;;;2.30;99.90;;;3.25;91.04;101099.41;6184400;23;20091;-77
2021/05/03 02:05:29;;;;;;;15.15;8.82;;;2.20;99.90;;;3.27;90.85;101088.09;6158011;23;20483;-80
2021/05/03 02:08:04;;;;;;;11.85;8.07;;;2.20;99.90;;;3.23;90.88;101087.03;6204555;23;20021;-78
2021/05/03 02:10:32;;;;;;;13.27;9.23;;;2.20;99.90;;;3.18;90.67;101090.69;6180507;23;20066;-79
2021/05/03 02:13:01;;;;;;;13.20;8.30;;;2.10;99.90;;;3.13;91.09;101093.53;6172044;23;20015;-76
2021/05/03 02:15:30;;;;;;;14.63;7.88;;;2.10;99.90;;;3.07;91.10;101092.78;6157975;23;20005;-79
2021/05/03 02:17:57;;;;;;;12.50;8.50;;;2.10;99.90;;;3.04;90.92;101103.59;6157673;23;20071;-78
2021/05/03 02:20:23;;;;;;;12.70;8.30;;;2.00;99.90;;;2.98;90.97;101102.84;6184918;23;20005;-79
2021/05/03 02:22:49;;;;;;;13.65;8.75;;;2.00;99.90;;;2.97;91.08;101103.13;6158094;23;20330;-79
2021/05/03 02:25:16;;;;;;;10.65;7.60;;;2.00;99.90;;;2.94;90.87;101100.97;6182550;23;20005;-79
2021/05/03 02:27:42;;;;;;;14.02;8.10;;;1.90;99.90;;;2.92;91.12;101090.22;6184458;23;20005;-77
2021/05/03 02:30:10;;;;;;;12.93;8.63;;;1.90;99.90;;;2.88;91.05;101093.88;6184350;23;20103;-79
2021/05/03 02:32:38;;;;;;;12.93;8.80;;;1.90;99.90;;;2.89;91.26;101099.09;6158088;23;20088;-77
2021/05/03 02:35:16;;;;;;;12.98;9.13;;;1.90;99.90;;;2.91;91.21;101090.53;6157616;23;20079;-78
2021/05/03 02:37:46;;;;;;;15.05;10.13;;;1.90;99.90;;;2.88;91.36;101093.88;6157492;23;20005;-79
2021/05/03 02:40:13;;;;;;;14.05;9.80;;;1.80;99.90;;;2.86;91.13;101085.09;6184016;23;20017;-78
2021/05/03 02:42:39;;;;;;;15.02;9.73;;;1.80;99.90;;;2.85;91.17;101091.72;6157790;23;20150;-79
2021/05/03 02:45:07;;;;;;;15.25;8.85;;;1.80;99.90;;;2.89;91.58;101081.72;6183784;23;20044;-79
2021/05/03 02:47:33;;;;;;;14.35;9.40;;;1.90;99.90;;;2.98;91.22;101089.06;6184297;23;20324;-79
2021/05/03 02:50:00;;;;;;;16.48;9.68;;;1.90;99.90;;;2.97;91.17;101087.41;6184597;23;20009;-77
2021/05/03 02:52:26;;;;;;;14.70;9.45;;;1.90;99.90;;;2.97;91.06;101089.34;6184899;23;20435;-79
2021/05/03 02:54:51;;;;;;;17.23;9.65;;;1.90;99.90;;;2.95;91.14;101084.13;6183975;23;20028;-80
2021/05/03 02:57:17;;;;;;;16.08;10.02;;;1.90;99.90;;;2.98;91.64;101091.81;6184080;23;20031;-79
2021/05/03 02:59:43;;;;;;;23.05;10.15;;;1.90;99.90;;;3.02;91.59;101094.78;6157787;23;20009;-78
2021/05/03 03:02:09;;;;;;;16.55;10.82;;;2.00;99.90;;;3.06;91.13;101093.06;6185742;23;20071;-78
2021/05/03 03:04:35;;;;;;;20.10;10.70;;;2.10;99.90;;;3.12;91.33;101102.91;6158814;23;20009;-78
2021/05/03 03:07:01;;;;;;;18.05;11.32;;;2.10;99.90;;;3.11;91.04;101087.50;6183707;23;20016;-77
2021/05/03 03:09:27;;;;;;;17.02;10.73;;;2.10;99.90;;;3.15;91.04;101088.50;6183606;23;20233;-80
2021/05/03 03:11:53;;;;;;;18.98;10.48;;;2.20;99.90;;;3.14;90.93;101089.66;6157617;23;20028;-77
2021/05/03 03:14:19;;;;;;;17.85;10.70;;;2.20;99.90;;;3.21;90.57;101087.34;6183875;23;20418;-79
2021/05/03 03:16:46;;;;;;;16.15;10.65;;;2.20;99.90;;;3.26;90.31;101098.31;6184076;23;20100;-79
2021/05/03 03:19:11;;;;;;;17.25;10.93;;;2.20;99.90;;;3.22;90.34;101096.41;6157280;23;20020;-77
2021/05/03 03:21:37;;;;;;;16.23;10.25;;;2.30;99.90;;;3.25;90.00;101090.31;6184026;23;20033;-78
2021/05/03 03:24:04;;;;;;;18.00;10.23;;;2.30;99.90;;;3.28;89.62;101090.53;6183767;23;20005;-77
2021/05/03 03:26:30;;;;;;;17.02;11.02;;;2.30;99.90;;;3.25;89.59;101090.31;6167563;23;20023;-79
2021/05/03 03:28:55;;;;;;;16.17;10.23;;;2.20;99.90;;;3.21;89.88;101090.09;6207809;23;20013;-77
2021/05/03 03:31:21;;;;;;;17.20;11.07;;;2.20;99.90;;;3.21;89.67;101098.38;6186037;23;20423;-79
2021/05/03 03:33:47;;;;;;;18.20;11.10;;;2.30;99.90;;;3.19;89.89;101089.56;6186105;23;20008;-79
2021/05/03 03:36:13;;;;;;;16.65;10.77;;;2.30;99.90;;;3.18;89.46;101088.75;6185879;23;20435;-78
2021/05/03 03:38:39;;;;;;;14.95;10.18;;;2.20;99.90;;;3.12;89.52;101095.47;6186193;23;20044;-79
2021/05/03 03:41:05;;;;;;;18.42;10.00;;;2.20;99.90;;;3.21;89.70;101095.63;6186383;23;20030;-77
2021/05/03 03:43:32;;;;;;;16.80;11.15;;;2.30;99.90;;;3.23;89.57;101098.06;6188394;23;20381;-79
2021/05/03 03:45:58;;;;;;;26.02;10.90;;;2.30;99.90;;;3.25;89.09;101098.59;6184490;23;20016;-79
2021/05/03 03:48:23;;;;;;;19.67;11.13;;;2.30;99.90;;;3.22;89.56;101090.91;6184482;23;20067;-79
2021/05/03 03:50:49;;;;;;;20.38;11.45;;;2.30;99.90;;;3.21;89.65;101089.28;6186240;23;20001;-78
2021/05/03 03:53:19;;;;;;;17.60;11.68;;;2.30;99.90;;;3.25;89.32;101084.78;6197235;23;20028;-77
2021/05/03 03:55:46;;;;;;;19.60;11.00;;;2.30;99.90;;;3.15;89.88;101083.81;6201887;23;20009;-80
2021/05/03 03:58:14;;;;;;;16.25;10.82;;;2.30;99.90;;;3.19;89.55;101087.63;6203026;23;20024;-81
2021/05/03 04:00:40;;;;;;;15.18;11.27;;;2.30;99.90;;;3.18;89.58;101088.75;6201460;23;20016;-80
2021/05/03 04:03:09;;;;;;;19.02;11.52;;;2.30;99.90;;;3.17;89.55;101084.34;6199436;23;20036;-80
2021/05/03 04:21:12;;;;;;;21.30;11.32;;;2.30;99.90;;;3.19;89.06;101082.09;6213374;23;20007;-74
2021/05/03 04:26:25;;;;;;;19.65;12.80;;;2.30;99.90;;;3.23;89.41;101093.38;6216521;23;20032;-80
2021/05/03 04:28:54;;;;;;;23.90;11.23;;;2.30;99.90;;;3.23;89.08;101092.56;6206754;23;20114;-78
2021/05/03 04:31:30;;;;;;;19.25;11.50;;;2.40;99.90;;;3.24;89.11;101084.00;6178781;23;20001;-78
2021/05/03 04:33:56;;;;;;;16.90;10.88;;;2.40;99.90;;;3.24;88.83;101092.28;6202966;23;20001;-80
2021/05/03 04:36:22;;;;;;;18.13;11.10;;;2.40;99.90;;;3.23;89.20;101089.78;6203267;23;20080;-79
2021/05/03 04:38:50;;;;;;;21.15;10.93;;;2.40;99.90;;;3.23;89.38;101093.38;6175502;23;20016;-79
2021/05/03 04:41:20;;;;;;;16.88;11.10;;;2.40;99.90;;;3.26;89.13;101098.31;6197461;23;20004;-80
2021/05/03 04:43:55;;;;;;;18.60;11.75;;;2.40;99.90;;;3.32;89.06;101099.03;6203635;23;20005;-80
2021/05/03 04:46:21;;;;;;;20.42;11.95;;;2.50;99.90;;;3.38;88.54;101098.66;6180377;23;20009;-76
2021/05/03 04:48:49;;;;;;;17.58;11.75;;;2.50;99.90;;;3.51;88.52;101089.63;6184706;23;20013;-80
2021/05/03 04:51:16;;;;;;;18.70;11.23;;;2.50;99.90;;;3.45;87.93;101093.59;6192475;23;20426;-81
2021/05/03 04:53:42;;;;;;;21.08;10.95;;;2.50;99.90;;;3.57;88.01;101102.22;6198609;23;20005;-79
2021/05/03 04:56:07;;;;;;;20.38;11.05;;;2.50;99.90;;;3.58;88.09;101095.59;6195130;23;20012;-83
2021/05/03 04:58:33;;;;;;;21.40;12.65;;;2.60;99.90;;;3.60;87.89;101090.56;6199907;23;20033;-81
2021/05/03 05:00:59;;;;;;;17.50;10.75;;;2.60;99.90;;;3.71;87.70;101089.31;6191668;23;20005;-79
2021/05/03 05:03:25;;;;;;;19.63;11.63;;;2.70;99.90;;;3.77;87.53;101092.78;6191717;23;20346;-81
2021/05/03 05:05:52;;;;;;;22.42;11.88;;;2.70;99.90;;;3.82;88.04;101089.13;6190016;23;20080;-80
2021/05/03 05:08:21;;;;;;;19.80;12.15;;;2.80;99.90;;;3.94;87.89;101098.59;6190779;23;20302;-82
2021/05/03 05:10:47;;;;;;;19.85;11.27;;;2.90;99.90;;;4.05;87.50;101093.69;6190332;23;20375;-80
2021/05/03 05:13:14;;;;;;;20.63;12.65;;;3.00;99.90;;;4.18;86.93;101087.34;6189191;23;20131;-79
2021/05/03 05:15:40;;;;;;;18.55;11.57;;;3.10;99.90;;;4.30;86.65;101096.00;6189750;23;20078;-79
2021/05/03 05:18:08;;;;;;;19.55;11.77;;;3.30;99.90;;;4.40;86.59;101093.00;6189103;23;20005;-80
2021/05/03 05:20:35;;;;;;;16.08;10.90;;;3.50;99.90;;;4.57;86.57;101086.88;6188156;23;20012;-81
2021/05/03 05:23:05;;;;;;;19.65;10.25;;;3.60;99.90;;;4.92;85.08;101090.84;6189695;23;20266;-80
2021/05/03 05:25:31;;;;;;;18.48;10.30;;;3.80;99.90;;;5.10;84.45;101095.44;6195211;23;20005;-80
2021/05/03 05:27:57;;;;;;;18.00;9.73;;;3.90;99.90;;;5.19;84.16;101096.34;6194369;23;20309;-78
2021/05/03 05:30:23;;;;;;;14.98;9.15;;;4.10;99.90;;;5.39;82.78;101095.88;6193203;23;20060;-79
2021/05/03 05:32:49;;;;;;;13.05;8.70;;;4.30;99.90;;;5.69;82.51;101089.59;6194109;23;20009;-80
2021/05/03 05:35:15;;;;;;;14.43;9.40;;;4.40;99.90;;;5.74;81.36;101092.25;6195933;23;20488;-80
2021/05/03 05:37:42;;;;;;;16.02;9.63;;;4.60;99.90;;;5.64;80.87;101091.69;6193434;23;20055;-81
2021/05/03 05:40:08;;;;;;;16.25;9.20;;;4.70;99.90;;;5.91;80.50;101082.44;6194218;23;20005;-80
2021/05/03 05:42:34;;;;;;;15.25;9.05;;;4.80;99.90;;;6.09;80.05;101092.50;6189087;23;20454;-81
2021/05/03 05:45:00;;;;;;;19.05;9.13;;;4.90;99.90;;;6.08;80.12;101094.44;6188047;23;20004;-78
2021/05/03 05:47:26;;;;;;;12.68;8.32;;;5.00;99.90;;;6.37;79.80;101088.41;6187972;23;20016;-81
2021/05/03 05:49:52;;;;;;;13.85;8.05;;;5.20;99.90;;;6.52;78.28;101084.41;6189995;23;20009;-83
2021/05/03 05:52:18;;;;;;;13.13;8.43;;;5.40;99.90;;;6.70;78.67;101086.91;6188898;23;20024;-80
2021/05/03 05:54:44;;;;;;;15.45;8.52;;;5.60;99.90;;;7.03;77.71;101078.19;6190123;23;20009;-82
2021/05/03 05:57:09;;;;;;;12.30;8.00;;;5.80;99.90;;;7.45;75.49;101080.16;6189696;23;20011;-82
2021/05/03 05:59:35;;;;;;;14.35;9.07;;;6.10;99.90;;;7.54;75.30;101082.97;6194381;23;20009;-81
2021/05/03 06:02:03;;;;;;;12.98;7.30;;;6.40;99.90;;;7.73;75.04;101089.00;6197012;23;20005;-81
2021/05/03 06:04:29;;;;;;;12.32;7.25;;;6.60;99.90;;;8.15;72.71;101087.28;6196631;23;20005;-79
2021/05/03 06:06:55;;;;;;;10.95;7.10;;;6.80;99.90;;;8.00;72.39;101085.84;6192811;23;20104;-81
2021/05/03 06:09:20;;;;;;;14.57;6.60;;;7.00;99.90;;;8.24;72.35;101079.72;6195096;23;20263;-80
2021/05/03 06:11:47;;;;;;;15.93;7.15;;;7.10;99.90;;;8.04;74.05;101077.66;6196473;23;20068;-81
2021/05/03 06:14:13;;;;;;;17.23;8.18;;;7.10;99.90;;;8.43;72.24;101081.00;6196226;23;20016;-83
2021/05/03 06:16:39;;;;;;;11.90;7.25;;;7.30;99.90;;;8.69;71.59;101092.03;6194739;23;20347;-81
2021/05/03 06:19:10;;;;;;;9.10;6.20;;;7.50;99.90;;;8.83;70.10;101087.03;6199213;23;20043;-83
2021/05/03 06:21:36;;;;;;;8.90;5.68;;;7.60;99.90;;;9.17;67.93;101079.63;6200658;23;20079;-82
2021/05/03 06:24:03;;;;;;;12.35;5.70;;;7.90;99.90;;;8.72;67.55;101079.41;6205529;23;20419;-79
2021/05/03 06:26:29;;;;;;;9.90;5.55;;;7.90;99.90;;;9.04;66.69;101075.94;6206057;23;20044;-80
2021/05/03 06:28:55;;;;;;;13.05;5.43;;;8.00;99.90;;;9.08;67.63;101084.44;6207631;23;20005;-80
2021/05/03 06:31:21;;;;;;;9.93;5.88;;;8.10;99.90;;;9.39;66.46;101082.91;6203444;23;20005;-79
2021/05/03 06:33:47;;;;;;;9.70;5.35;;;8.20;99.90;;;9.48;65.19;101092.00;6201728;23;20039;-81
2021/05/03 06:36:13;;;;;;;7.43;5.35;;;8.40;99.90;;;9.47;66.27;101084.00;6201141;23;20016;-81
2021/05/03 06:38:39;;;;;;;9.02;5.50;;;8.40;99.90;;;9.36;66.45;101071.63;6199750;23;20008;-79
2021/05/03 06:41:05;;;;;;;8.73;5.75;;;8.60;99.90;;;9.86;63.89;101080.69;6199477;23;20024;-80
2021/05/03 06:43:31;;;;;;;11.43;5.60;;;8.80;99.90;;;10.36;62.34;101082.50;6200077;23;20005;-82
2021/05/03 06:45:58;;;;;;;9.15;5.30;;;9.10;99.90;;;10.24;61.38;101083.28;6198050;23;20009;-82
2021/05/03 06:48:26;;;;;;;8.80;5.35;;;9.30;99.90;;;9.79;62.33;101083.19;6198633;23;20071;-81
2021/05/03 06:50:51;;;;;;;10.10;5.70;;;9.10;99.90;;;10.12;62.73;101080.41;6173792;23;20108;-80
2021/05/03 06:53:17;;;;;;;9.73;5.03;;;9.10;99.90;;;10.36;60.54;101088.09;6175590;23;20016;-80
2021/05/03 06:55:46;;;;;;;8.68;5.50;;;9.20;99.90;;;10.29;60.90;101087.81;6178261;23;20008;-79
2021/05/03 06:58:14;;;;;;;8.05;5.70;;;9.20;99.90;;;10.12;60.49;101085.19;6204594;23;20012;-80
2021/05/03 07:00:40;;;;;;;9.75;6.35;;;9.20;99.90;;;10.21;60.22;101081.16;6195517;23;20005;-81
2021/05/03 07:03:10;;;;;;;9.70;5.53;;;9.10;99.90;;;10.11;60.71;101087.19;6169402;23;20023;-80
2021/05/03 07:05:38;;;;;;;11.85;6.07;;;9.00;99.90;;;9.75;61.57;101085.06;6183839;23;20017;-79
2021/05/03 07:08:06;;;;;;;8.88;5.80;;;8.80;99.90;;;10.08;61.83;101088.66;6200274;23;20036;-82
2021/05/03 07:10:34;;;;;;;13.57;6.60;;;8.90;99.90;;;10.32;59.65;101092.72;6194300;23;20005;-82
2021/05/03 07:13:02;;;;;;;10.63;6.68;;;9.10;99.90;;;10.50;59.09;101092.16;6195461;23;20008;-80
2021/05/03 07:15:28;;;;;;;9.32;6.00;;;9.40;99.90;;;10.80;57.11;101095.56;6168701;23;20071;-82
2021/05/03 07:17:54;;;;;;;10.63;6.57;;;9.70;99.90;;;10.95;56.54;101085.66;6196683;23;20005;-82
2021/05/03 07:20:21;;;;;;;11.27;5.85;;;9.80;99.90;;;10.94;57.39;101078.47;6201193;23;20024;-81
2021/05/03 07:22:48;;;;;;;10.13;6.70;;;9.80;99.90;;;10.77;57.01;101085.09;6171591;23;20028;-80
2021/05/03 07:25:14;;;;;;;9.77;6.00;;;9.80;99.90;;;10.69;57.57;101085.22;6166656;23;20140;-81
2021/05/03 07:27:41;;;;;;;11.77;6.80;;;9.70;99.90;;;10.83;57.46;101089.28;6193105;23;20009;-81
2021/05/03 07:30:13;;;;;;;9.25;6.85;;;9.80;99.90;;;10.82;56.70;101089.66;6164633;23;20009;-80
2021/05/03 07:32:40;;;;;;;13.52;7.70;;;9.80;99.90;;;11.28;56.52;101083.53;6165336;23;20020;-80
2021/05/03 07:35:10;;;;;;;9.75;6.72;;;10.00;99.90;;;11.78;55.76;101079.47;6191512;23;20032;-79
2021/05/03 07:37:36;;;;;;;12.18;6.65;;;10.40;99.90;;;12.39;53.05;101078.00;6192751;23;20001;-80
2021/05/03 07:40:07;;;;;;;11.77;6.18;;;10.80;99.90;;;12.74;52.44;101089.28;6165420;23;20009;-82
2021/05/03 07:42:34;;;;;;;8.30;5.50;;;11.20;99.90;;;12.24;51.93;101084.38;6166312;23;20016;-81
2021/05/03 07:45:00;;;;;;;9.30;4.97;;;11.20;99.90;;;12.56;51.22;101083.22;6168511;23;20096;-81
2021/05/03 07:47:27;;;;;;;7.70;4.50;;;11.30;99.90;;;12.16;50.18;101079.75;6196046;23;20013;-80
2021/05/03 07:49:55;;;;;;;7.47;4.35;;;11.30;95.80;;;12.26;48.05;101075.63;6169495;23;20004;-81
2021/05/03 07:52:21;;;;;;;6.50;4.18;;;11.30;91.00;;;12.40;48.54;101070.38;6175558;23;20020;-83
2021/05/03 07:54:47;;;;;;;6.50;3.60;;;11.40;92.10;;;12.52;48.63;101073.91;6166457;23;20005;-81
2021/05/03 07:57:13;;;;;;;5.35;4.00;;;11.50;92.20;;;12.27;48.92;101068.81;6191849;23;20008;-81
2021/05/03 07:59:39;;;;;;;6.60;3.97;;;11.40;91.10;;;12.72;48.19;101066.41;6187337;23;20008;-80
2021/05/03 08:02:05;;;;;;;6.57;3.92;;;11.70;89.80;;;13.50;45.19;101068.25;6188399;23;20008;-83
2021/05/03 08:04:30;;;;;;;6.70;3.97;;;12.10;84.80;;;13.15;45.67;101077.50;6188662;23;20446;-82
2021/05/03 08:07:00;;;;;;;5.05;3.70;;;12.30;81.40;;;13.43;45.20;101068.91;6188656;23;20051;-80
2021/05/03 08:09:27;;;;;;;6.43;3.65;;;12.50;80.00;;;13.94;41.68;101078.00;6162689;23;20088;-82
2021/05/03 08:11:59;;;;;;;4.78;3.00;;;12.70;72.80;;;14.00;43.72;101072.94;6188854;23;20005;-81
2021/05/03 08:14:25;;;;;;;4.32;2.90;;;12.80;75.80;;;13.87;42.64;101071.47;6162673;23;20017;-82
2021/05/03 08:16:55;;;;;;;4.22;2.75;;;12.80;72.30;;;13.83;42.46;101073.38;6190637;23;20406;-80
2021/05/03 08:19:22;;;;;;;6.22;3.45;;;12.70;72.40;;;14.26;41.07;101067.41;6168967;23;20415;-79
2021/05/03 08:21:49;;;;;;;5.40;3.08;;;12.90;70.50;;;14.36;42.24;101066.00;6171354;23;20092;-80
2021/05/03 08:24:15;;;;;;;4.85;2.50;;;13.00;72.20;;;15.13;40.24;101060.88;6172851;23;20020;-80
2021/05/03 08:26:41;;;;;;;4.72;2.70;;;13.40;68.80;;;15.62;38.43;101058.78;6198656;23;20001;-80
2021/05/03 08:29:07;;;;;;;4.88;2.92;;;14.00;65.70;;;15.67;38.14;101050.00;6172498;23;20016;-82
2021/05/03 08:31:33;;;;;;;4.55;2.13;;;14.20;64.60;;;16.03;37.16;101054.06;6171655;23;20040;-81
2021/05/03 08:33:59;;;;;;;5.18;2.60;;;14.50;62.50;;;16.03;36.71;101056.06;6171607;23;20005;-82
2021/05/03 08:36:25;;;;;;;9.20;3.15;;;14.70;60.90;;;16.83;35.37;101052.44;6171364;23;20024;-82
2021/05/03 08:38:51;;;;;;;2.95;2.20;;;15.00;59.40;;;15.78;33.85;101045.31;6171122;23;20009;-81
2021/05/03 08:41:17;;;;;;;4.32;2.20;;;14.90;54.80;;;15.80;34.06;101050.56;6170816;23;20009;-81
2021/05/03 08:43:46;;;;;;;4.15;2.25;;;14.70;54.90;;;16.07;33.56;101049.28;6198515;23;20125;-81
2021/05/03 08:46:26;;;;;;;4.10;2.10;;;14.70;55.60;;;15.26;35.15;101040.56;6198476;23;20005;-82
2021/05/03 08:51:51;;;;;;;4.55;2.63;;;14.30;54.80;;;15.18;35.29;101030.44;6197583;23;20090;-81
2021/05/03 08:54:53;;;;;;;4.97;2.58;;;14.10;56.30;;;15.19;35.42;101032.03;6198110;23;20009;-81
2021/05/03 08:57:15;;;;;;;4.65;3.33;;;14.10;56.20;;;15.35;35.44;101029.03;6191170;23;20011;-81
2021/05/03 08:59:42;;;;;;;6.05;3.60;;;14.30;56.60;;;15.55;36.26;101035.34;6171391;23;20013;-83
2021/05/03 09:02:13;;;;;;;5.95;3.60;;;14.40;57.50;;;16.18;35.31;101032.50;6197191;23;20009;-81
2021/05/03 09:04:40;;;;;;;6.25;3.03;;;14.70;57.00;;;16.01;35.29;101019.84;6169846;23;20013;-81
2021/05/03 09:07:05;;;;;;;6.93;3.35;;;14.80;55.80;;;16.07;34.48;101017.47;6196926;23;20013;-80
2021/05/03 09:09:43;;;;;;;6.28;3.20;;;14.90;55.00;;;16.37;33.90;101014.56;6198863;23;20080;-81
2021/05/03 09:12:25;;;;;;;5.05;2.90;;;15.10;54.50;;;16.41;33.64;101018.22;6196800;23;20043;-80
2021/05/03 09:14:59;;;;;;;2.83;2.35;;;15.20;54.20;;;17.18;33.13;101018.81;6192049;23;20001;-81
2021/05/03 09:17:31;;;;;;;9.23;2.80;;;15.60;54.50;;;17.00;32.29;101009.44;6192613;23;20005;-82
2021/05/03 09:20:20;;;;;;;4.32;2.67;;;15.60;53.40;;;17.20;34.42;101015.63;6165453;23;20005;-81
2021/05/03 09:22:54;;;;;;;3.40;2.42;;;15.80;54.90;;;16.81;31.17;100987.97;6191735;23;20015;-83
2021/05/03 09:25:43;;;;;;;4.43;2.75;;;15.80;50.00;;;16.30;33.51;100996.38;6179242;23;20009;-81
2021/05/03 09:28:26;;;;;;;5.22;3.22;;;15.40;52.50;;;16.80;32.90;100988.34;6199192;23;20036;-84
2021/05/03 09:30:55;;;;;;;4.80;3.00;;;15.50;53.50;;;16.36;33.29;100985.53;6190753;23;20028;-83
2021/05/03 09:33:31;;;;;;;6.03;3.10;;;15.40;52.80;;;16.15;33.83;100977.69;6189716;23;20005;-82
2021/05/03 09:36:13;;;;;;;5.47;3.42;;;15.30;52.80;;;16.99;33.02;100988.06;6188566;23;20088;-81
2021/05/03 09:38:47;;;;;;;5.70;3.05;;;15.40;53.40;;;16.28;32.45;100986.66;6162716;23;20028;-81
2021/05/03 09:41:23;;;;;;;5.85;3.22;;;15.40;51.10;;;15.70;33.74;100986.50;6167339;23;20490;-81
2021/05/03 09:44:05;;;;;;;7.97;3.38;;;15.00;52.40;;;15.49;34.69;100980.59;6192984;23;20004;-84
2021/05/03 09:46:38;;;;;;;8.40;3.90;;;14.80;53.50;;;15.97;34.38;100968.25;6162926;23;20079;-80
2021/05/03 09:49:21;;;;;;;6.00;3.92;;;14.90;53.80;;;16.29;34.91;100982.66;6184319;23;20005;-82
2021/05/03 09:52:00;;;;;;;6.88;3.78;;;15.10;54.40;;;16.26;35.61;100977.81;6189681;23;20008;-83
2021/05/03 09:54:31;;;;;;;4.72;2.60;;;15.30;54.40;;;16.77;30.10;100975.03;6188877;23;20108;-82
2021/05/03 09:57:11;;;;;;;4.75;2.92;;;15.50;49.20;;;17.16;32.10;100978.09;6188936;23;20024;-83
2021/05/03 09:59:45;;;;;;;5.03;3.10;;;15.70;51.10;;;17.25;31.55;100978.53;6196807;23;20012;-82
2021/05/03 10:02:24;;;;;;;3.88;3.00;;;16.00;51.10;;;16.83;31.47;100968.63;6193885;23;20004;-82
2021/05/03 10:05:17;;;;;;;5.47;3.13;;;15.90;50.00;;;16.37;32.34;100961.00;6188459;23;20005;-84
2021/05/03 10:07:51;;;;;;;6.28;3.53;;;15.60;50.60;;;16.53;32.85;100967.16;6190026;23;20033;-83
2021/05/03 10:10:21;;;;;;;5.05;3.42;;;15.50;51.40;;;16.43;32.32;100959.44;6187884;23;20089;-83
2021/05/03 10:12:47;;;;;;;6.15;3.85;;;15.50;50.70;;;16.21;34.14;100956.41;6188301;23;20013;-83
2021/05/03 10:15:18;;;;;;;7.75;3.38;;;15.30;52.90;;;16.04;34.72;100951.44;6190921;23;20065;-83
2021/05/03 10:17:46;;;;;;;6.38;3.38;;;15.10;54.00;;;16.31;33.22;100952.09;6190005;23;20005;-80
2021/05/03 10:20:20;;;;;;;5.00;3.50;;;15.30;52.70;;;16.34;34.24;100951.31;6189632;23;20084;-82
2021/05/03 10:22:53;;;;;;;7.32;3.30;;;15.40;52.40;;;16.65;33.00;100944.31;6190847;23;20020;-83
2021/05/03 10:25:20;;;;;;;3.80;3.10;;;15.50;51.30;;;16.96;32.06;100942.88;6214387;23;20039;-82
2021/05/03 10:27:47;;;;;;;5.93;3.80;;;15.80;51.30;;;16.95;33.93;100949.75;6191326;23;20009;-84
2021/05/03 10:30:26;;;;;;;5.60;3.83;;;15.90;53.00;;;17.90;32.92;100930.38;6190079;23;20001;-83
2021/05/03 10:33:04;;;;;;;7.88;4.57;;;16.40;52.70;;;17.44;32.01;100935.06;6188211;23;20009;-80
2021/05/03 10:35:48;;;;;;;6.82;4.18;;;16.30;50.90;;;17.45;32.92;100923.38;6188174;23;20410;-84
2021/05/03 10:38:39;;;;;;;8.15;4.47;;;16.40;52.00;;;17.50;32.02;100920.16;6188901;23;20020;-83
2021/05/03 10:41:27;;;;;;;6.03;3.80;;;16.30;50.60;;;16.97;34.01;100922.75;6191500;23;20017;-82
2021/05/03 10:44:19;;;;;;;7.65;4.05;;;15.90;53.30;;;16.81;32.65;100919.44;6185330;23;20446;-78